Time;durP1;ratioP1;P1;durP2;ratioP2;P2;SDS_P1;SDS_P2;PMS_P1;PMS_P2;Temp;Humidity;BMP_temperature;BMP_pressure;BME280_temperature;BME280_humidity;BME280_pressure;Samples;Min_cycle;Max_cycle;Signal;HPM_P1;HPM_P2
2021/12/29 00:00:33;;;;;;;28.80;12.85;;;-9.70;99.90;;;;;;5050397;28;20406;-83
2021/12/29 00:03:02;;;;;;;26.02;11.80;;;-9.90;99.90;;;;;;5050327;28;20470;-83
2021/12/29 00:05:31;;;;;;;24.90;11.45;;;-9.90;99.90;;;;;;5051426;28;20457;-84
2021/12/29 00:07:58;;;;;;;24.23;11.73;;;-9.90;99.90;;;;;;5050203;28;20400;-82
2021/12/29 00:10:29;;;;;;;26.15;12.40;;;-9.80;99.90;;;;;;5050086;28;20412;-84
2021/12/29 00:12:57;;;;;;;26.63;11.65;;;-9.70;99.90;;;;;;5050175;28;20893;-83
2021/12/29 00:15:27;;;;;;;27.65;13.00;;;-9.90;99.90;;;;;;5051515;28;20387;-82
2021/12/29 00:17:57;;;;;;;26.45;12.75;;;-9.90;99.90;;;;;;5033577;28;20387;-83
2021/12/29 00:20:29;;;;;;;26.67;12.23;;;-10.10;99.90;;;;;;5049834;28;20842;-83
2021/12/29 00:22:58;;;;;;;26.65;12.35;;;-10.00;99.90;;;;;;5050160;28;20396;-83
2021/12/29 00:25:26;;;;;;;26.13;11.90;;;-10.00;99.90;;;;;;5051154;28;20387;-84
2021/12/29 00:27:59;;;;;;;24.60;11.95;;;-9.90;99.90;;;;;;5049617;28;20445;-84
2021/12/29 00:30:28;;;;;;;26.25;12.60;;;-9.90;99.90;;;;;;5033386;28;20408;-83
2021/12/29 00:32:57;;;;;;;24.27;11.63;;;-9.90;99.90;;;;;;5049842;28;20384;-83
2021/12/29 00:35:45;;;;;;;28.15;12.48;;;-9.80;99.90;;;;;;5051528;28;20896;-85
2021/12/29 00:38:31;;;;;;;25.27;12.35;;;-9.90;99.90;;;;;;5050889;28;20399;-84
2021/12/29 00:41:25;;;;;;;27.45;12.82;;;-9.90;99.90;;;;;;5027469;28;20386;-85
2021/12/29 00:43:59;;;;;;;27.67;13.48;;;-10.00;99.90;;;;;;5051552;28;20738;-83
2021/12/29 00:46:41;;;;;;;25.37;12.33;;;-10.00;99.90;;;;;;5050156;28;20380;-84
2021/12/29 00:49:10;;;;;;;28.10;14.15;;;-9.90;99.90;;;;;;5033353;28;20896;-84
2021/12/29 00:51:37;;;;;;;26.50;12.43;;;-9.80;99.90;;;;;;5049788;28;20396;-84
2021/12/29 00:54:05;;;;;;;27.52;12.95;;;-9.80;99.90;;;;;;5045942;28;20471;-85
2021/12/29 00:56:33;;;;;;;27.45;13.20;;;-9.90;99.90;;;;;;5045678;28;20429;-84
2021/12/29 00:59:01;;;;;;;28.40;13.03;;;-9.90;99.90;;;;;;5032504;28;20403;-83
2021/12/29 01:01:29;;;;;;;25.33;11.98;;;-9.80;99.90;;;;;;5036617;28;21081;-84
2021/12/29 01:04:03;;;;;;;24.10;10.90;;;-9.60;99.90;;;;;;5024332;28;20455;-85
2021/12/29 01:06:30;;;;;;;25.33;11.40;;;-9.60;99.90;;;;;;5050202;28;20415;-83
2021/12/29 01:08:58;;;;;;;23.98;11.05;;;-9.80;99.90;;;;;;5033291;28;20404;-83
2021/12/29 01:11:26;;;;;;;24.77;11.48;;;-9.80;99.90;;;;;;5019698;28;20435;-83
2021/12/29 01:13:54;;;;;;;22.75;11.05;;;-9.70;99.90;;;;;;5036757;28;20747;-85
2021/12/29 01:19:08;;;;;;;24.30;10.68;;;-9.70;99.90;;;;;;5053304;28;20574;-84
2021/12/29 01:21:37;;;;;;;22.50;10.43;;;-9.70;99.90;;;;;;5034578;28;20394;-83
2021/12/29 01:24:06;;;;;;;25.95;11.48;;;-9.70;99.90;;;;;;5032776;28;20888;-84
2021/12/29 01:26:34;;;;;;;22.73;10.50;;;-9.80;99.90;;;;;;5032814;28;20412;-84
2021/12/29 01:29:03;;;;;;;25.70;11.20;;;-9.90;99.90;;;;;;5032952;28;20480;-83
2021/12/29 01:31:31;;;;;;;24.13;11.52;;;-9.80;99.90;;;;;;5016525;28;20409;-84
2021/12/29 01:33:59;;;;;;;22.98;10.75;;;-9.80;99.90;;;;;;5018926;28;20454;-85
2021/12/29 01:36:27;;;;;;;23.87;10.90;;;-9.70;99.90;;;;;;5052774;28;20444;-85
2021/12/29 01:38:55;;;;;;;22.17;10.65;;;-9.90;99.90;;;;;;5052749;28;20495;-82
2021/12/29 01:41:23;;;;;;;22.23;10.30;;;-9.90;99.90;;;;;;5035988;28;20534;-83
2021/12/29 01:43:51;;;;;;;21.97;10.30;;;-9.90;99.90;;;;;;5052534;28;20396;-83
2021/12/29 01:46:20;;;;;;;24.27;11.07;;;-10.00;99.90;;;;;;5036140;28;20469;-83
2021/12/29 01:48:47;;;;;;;24.65;11.43;;;-9.80;99.90;;;;;;5036202;28;20474;-84
2021/12/29 01:51:18;;;;;;;23.63;11.05;;;-9.70;99.90;;;;;;5035942;28;20469;-85
2021/12/29 01:53:50;;;;;;;23.30;10.50;;;-9.60;99.90;;;;;;5052327;28;20407;-85
2021/12/29 01:56:18;;;;;;;23.70;11.27;;;-9.70;99.90;;;;;;5036448;28;20399;-85
2021/12/29 01:58:46;;;;;;;21.65;10.63;;;-9.80;99.90;;;;;;5035847;28;20388;-84
2021/12/29 02:01:13;;;;;;;22.85;10.32;;;-9.70;99.90;;;;;;5035828;28;20890;-83
2021/12/29 02:03:41;;;;;;;23.27;11.05;;;-9.70;99.90;;;;;;5051968;28;20479;-83
2021/12/29 02:06:09;;;;;;;23.95;11.20;;;-9.80;99.90;;;;;;5052059;28;20392;-84
2021/12/29 02:08:37;;;;;;;24.13;10.85;;;-9.70;99.90;;;;;;5051129;28;20877;-84
2021/12/29 02:11:07;;;;;;;22.70;10.30;;;-9.80;99.90;;;;;;5052206;28;20947;-84
2021/12/29 02:13:34;;;;;;;21.20;10.40;;;-9.80;99.90;;;;;;5035421;28;20901;-84
2021/12/29 02:16:02;;;;;;;24.02;11.07;;;-9.90;99.90;;;;;;5035426;28;20392;-84
2021/12/29 02:18:31;;;;;;;24.88;11.48;;;-9.90;99.90;;;;;;5035775;28;20485;-84
2021/12/29 02:20:59;;;;;;;25.75;12.43;;;-9.90;99.90;;;;;;5052171;28;20406;-84
2021/12/29 02:23:45;;;;;;;24.80;12.40;;;-9.80;99.90;;;;;;5035492;28;20395;-83
2021/12/29 02:26:14;;;;;;;24.45;12.07;;;-9.80;99.90;;;;;;5035148;28;20400;-84
2021/12/29 02:28:42;;;;;;;24.52;12.30;;;-9.80;99.90;;;;;;5051888;28;20392;-85
2021/12/29 02:31:09;;;;;;;26.08;12.95;;;-9.80;99.90;;;;;;5051504;28;20842;-83
2021/12/29 02:33:37;;;;;;;23.10;11.63;;;-9.70;99.90;;;;;;5051407;28;20384;-83
2021/12/29 02:36:05;;;;;;;25.33;11.82;;;-9.70;99.90;;;;;;5051622;28;20386;-84
2021/12/29 02:38:42;;;;;;;26.20;12.27;;;-9.90;99.90;;;;;;5034928;28;20463;-83
2021/12/29 02:41:10;;;;;;;26.42;13.00;;;-9.90;99.90;;;;;;5051439;28;20387;-84
2021/12/29 02:43:39;;;;;;;26.30;12.40;;;-9.90;99.90;;;;;;5034936;28;20403;-84
2021/12/29 02:46:11;;;;;;;28.73;12.25;;;-10.10;99.90;;;;;;5051078;28;20904;-83
2021/12/29 02:48:49;;;;;;;24.77;12.10;;;-9.90;99.90;;;;;;5051366;28;20754;-83
2021/12/29 02:51:17;;;;;;;25.35;11.43;;;-9.80;99.90;;;;;;5034822;28;20457;-84
2021/12/29 02:53:45;;;;;;;23.52;10.95;;;-9.80;99.90;;;;;;5051492;28;20418;-84
2021/12/29 02:56:13;;;;;;;23.13;10.88;;;-9.80;99.90;;;;;;5050989;28;20434;-84
2021/12/29 02:58:40;;;;;;;20.67;10.43;;;-9.90;99.90;;;;;;5051262;28;20383;-83
2021/12/29 03:01:12;;;;;;;25.17;11.35;;;-10.00;99.90;;;;;;5034492;28;20403;-83
2021/12/29 03:03:40;;;;;;;20.45;9.68;;;-10.00;99.90;;;;;;5050915;28;20890;-83
2021/12/29 03:06:09;;;;;;;21.37;9.97;;;-10.00;99.90;;;;;;5051077;28;20396;-84
2021/12/29 03:08:37;;;;;;;22.15;10.98;;;-10.00;99.90;;;;;;5052098;28;20862;-84
2021/12/29 03:11:06;;;;;;;24.73;11.30;;;-10.00;99.90;;;;;;5051107;28;20510;-84
2021/12/29 03:13:37;;;;;;;24.25;11.30;;;-9.80;99.90;;;;;;5050920;28;20392;-85
2021/12/29 03:16:06;;;;;;;23.85;11.15;;;-9.80;99.90;;;;;;5052299;28;20418;-84
2021/12/29 03:18:34;;;;;;;21.40;10.20;;;-9.80;99.90;;;;;;5050840;28;20467;-84
2021/12/29 03:21:03;;;;;;;22.70;10.93;;;-9.90;99.90;;;;;;5050153;28;20531;-83
2021/12/29 03:23:31;;;;;;;23.40;10.63;;;-9.90;99.90;;;;;;5050655;28;20487;-83
2021/12/29 03:25:59;;;;;;;23.95;11.07;;;-9.90;99.90;;;;;;5050879;28;20812;-83
2021/12/29 03:28:27;;;;;;;23.90;10.60;;;-9.80;99.90;;;;;;5050312;28;20406;-83
2021/12/29 03:30:56;;;;;;;24.15;10.82;;;-9.90;99.90;;;;;;5050462;28;20399;-83
2021/12/29 03:33:28;;;;;;;24.60;10.75;;;-9.90;99.90;;;;;;5033795;28;20396;-83
2021/12/29 03:36:03;;;;;;;23.13;10.90;;;-9.80;99.90;;;;;;5050312;28;20487;-85
2021/12/29 03:38:35;;;;;;;24.27;10.80;;;-10.00;99.90;;;;;;5050563;28;20804;-83
2021/12/29 03:41:06;;;;;;;24.30;11.18;;;-9.90;99.90;;;;;;5050402;28;20498;-83
2021/12/29 03:43:34;;;;;;;23.77;10.68;;;-9.90;99.90;;;;;;5050379;28;20502;-83
2021/12/29 03:46:04;;;;;;;22.27;10.10;;;-9.80;99.90;;;;;;5050591;28;20387;-85
2021/12/29 03:48:34;;;;;;;21.27;9.88;;;-9.80;99.90;;;;;;5051553;28;20475;-83
2021/12/29 03:51:03;;;;;;;22.27;10.73;;;-9.90;99.90;;;;;;5051401;28;21064;-83
2021/12/29 03:53:31;;;;;;;22.20;11.07;;;-10.00;99.90;;;;;;5050545;28;20398;-84
2021/12/29 03:55:59;;;;;;;21.02;10.43;;;-9.90;99.90;;;;;;5050191;28;20422;-84
2021/12/29 03:58:28;;;;;;;22.83;10.87;;;-9.90;99.90;;;;;;5050408;28;20398;-83
2021/12/29 04:01:00;;;;;;;26.67;12.13;;;-9.80;99.90;;;;;;5043758;28;20796;-84
2021/12/29 04:03:28;;;;;;;23.17;11.30;;;-10.00;99.90;;;;;;5031473;28;20396;-83
2021/12/29 04:05:56;;;;;;;22.80;10.48;;;-9.90;99.90;;;;;;5030289;28;20803;-83
2021/12/29 04:08:23;;;;;;;21.02;9.55;;;-10.00;99.90;;;;;;5030143;28;20428;-84
2021/12/29 04:10:51;;;;;;;24.45;11.15;;;-10.00;99.90;;;;;;5030071;28;20397;-84
2021/12/29 04:13:19;;;;;;;22.27;10.27;;;-9.90;99.90;;;;;;5030327;28;20393;-84
2021/12/29 04:15:47;;;;;;;22.80;10.48;;;-9.90;99.90;;;;;;5030153;28;20559;-83
2021/12/29 04:18:15;;;;;;;24.60;11.02;;;-9.80;99.90;;;;;;5030062;28;20850;-82
2021/12/29 04:21:01;;;;;;;20.58;9.73;;;-9.80;99.90;;;;;;5030192;28;20397;-83
2021/12/29 04:23:31;;;;;;;19.80;9.60;;;-9.90;99.90;;;;;;5029987;28;20488;-83
2021/12/29 04:26:01;;;;;;;18.42;8.88;;;-10.00;99.90;;;;;;5029974;28;20389;-83
2021/12/29 04:28:30;;;;;;;18.52;8.80;;;-10.00;99.90;;;;;;5029948;28;20864;-83
2021/12/29 04:31:01;;;;;;;19.33;8.90;;;-10.10;99.90;;;;;;5031176;28;20428;-84
2021/12/29 04:33:30;;;;;;;19.27;8.95;;;-10.10;99.90;;;;;;5033901;28;20409;-83
2021/12/29 04:35:58;;;;;;;19.38;8.95;;;-10.10;99.90;;;;;;5034029;28;20405;-83
2021/12/29 04:38:26;;;;;;;20.20;8.77;;;-10.00;99.90;;;;;;5034731;28;20400;-83
2021/12/29 04:40:55;;;;;;;19.60;9.02;;;-10.10;99.90;;;;;;5035152;28;20756;-84
2021/12/29 04:43:25;;;;;;;18.87;8.97;;;-10.20;99.90;;;;;;5033537;28;20424;-84
2021/12/29 04:45:54;;;;;;;18.15;8.63;;;-10.00;99.90;;;;;;5033902;28;20390;-83
2021/12/29 04:48:23;;;;;;;19.10;8.95;;;-10.10;99.90;;;;;;5033578;28;20401;-84
2021/12/29 04:51:03;;;;;;;20.60;9.30;;;-10.10;99.90;;;;;;5033362;28;20417;-84
2021/12/29 04:53:33;;;;;;;17.77;8.10;;;-10.10;99.90;;;;;;5033394;28;20389;-84
2021/12/29 04:56:01;;;;;;;18.67;8.32;;;-10.20;99.90;;;;;;5033470;28;20385;-84
2021/12/29 04:58:28;;;;;;;18.07;8.57;;;-10.20;99.90;;;;;;5033353;28;20472;-84
2021/12/29 05:00:56;;;;;;;18.70;8.55;;;-10.10;99.90;;;;;;5033537;28;20757;-84
2021/12/29 05:03:25;;;;;;;15.38;7.38;;;-10.10;99.90;;;;;;5034561;28;20404;-83
2021/12/29 05:08:33;;;;;;;17.20;8.10;;;-10.20;99.90;;;;;;5034331;28;20447;-83
2021/12/29 05:11:04;;;;;;;18.33;8.60;;;-10.30;99.90;;;;;;5034308;28;20416;-83
2021/12/29 05:13:33;;;;;;;18.75;8.70;;;-10.30;99.90;;;;;;5033334;28;20435;-83
2021/12/29 05:16:01;;;;;;;15.18;7.65;;;-10.20;99.90;;;;;;5033123;28;20756;-83
2021/12/29 05:18:32;;;;;;;19.65;8.45;;;-10.30;99.90;;;;;;5033068;28;20397;-83
2021/12/29 05:21:04;;;;;;;18.55;8.38;;;-10.20;99.90;;;;;;5033192;28;20395;-83
2021/12/29 05:23:32;;;;;;;18.85;8.80;;;-10.20;99.90;;;;;;5048676;28;20534;-83
2021/12/29 05:25:59;;;;;;;15.95;7.43;;;-10.20;99.90;;;;;;5052766;28;20488;-83
2021/12/29 05:28:27;;;;;;;16.67;8.02;;;-10.20;99.90;;;;;;5052836;28;20446;-84
2021/12/29 05:30:55;;;;;;;17.58;8.38;;;-10.30;99.90;;;;;;5036420;28;20488;-82
2021/12/29 05:33:23;;;;;;;18.75;8.13;;;-10.30;99.90;;;;;;5053960;28;20396;-85
2021/12/29 05:35:51;;;;;;;18.48;8.65;;;-10.40;99.90;;;;;;5053865;28;20380;-86
2021/12/29 05:38:19;;;;;;;15.82;7.63;;;-10.40;99.90;;;;;;5054052;28;20901;-84
2021/12/29 05:40:48;;;;;;;15.73;7.33;;;-10.60;99.90;;;;;;5052682;28;20384;-84
2021/12/29 05:43:16;;;;;;;17.77;8.30;;;-10.50;99.90;;;;;;5051377;28;20592;-84
2021/12/29 05:45:44;;;;;;;15.97;7.43;;;-10.30;99.90;;;;;;5052484;28;20384;-85
2021/12/29 05:48:12;;;;;;;17.42;8.32;;;-10.40;99.90;;;;;;5035573;28;20507;-83
2021/12/29 05:50:40;;;;;;;17.08;8.40;;;-10.30;99.90;;;;;;5052321;28;20384;-83
2021/12/29 05:53:07;;;;;;;16.80;7.50;;;-10.20;99.90;;;;;;5035931;28;20495;-83
2021/12/29 05:55:35;;;;;;;17.87;7.93;;;-10.30;99.90;;;;;;5035921;28;20479;-84
2021/12/29 05:58:03;;;;;;;14.83;7.07;;;-10.20;99.90;;;;;;5052282;28;20799;-84
2021/12/29 06:00:32;;;;;;;15.20;7.53;;;-10.30;99.90;;;;;;5052320;28;20392;-84
2021/12/29 06:03:00;;;;;;;15.38;7.03;;;-10.40;99.90;;;;;;5053286;28;20438;-83
2021/12/29 06:05:28;;;;;;;16.00;7.68;;;-10.30;99.90;;;;;;5051867;28;20392;-84
2021/12/29 06:07:56;;;;;;;18.13;8.45;;;-10.30;99.90;;;;;;5052327;28;20743;-83
2021/12/29 06:10:23;;;;;;;16.58;8.05;;;-10.40;99.90;;;;;;5035379;28;20392;-84
2021/12/29 06:12:51;;;;;;;17.30;7.55;;;-10.30;99.90;;;;;;5052087;28;20403;-83
2021/12/29 06:15:19;;;;;;;15.70;6.77;;;-10.40;99.90;;;;;;5053383;28;20394;-83
2021/12/29 06:17:47;;;;;;;16.23;7.45;;;-10.40;99.90;;;;;;5051700;28;20406;-82
2021/12/29 06:20:14;;;;;;;15.00;6.95;;;-10.40;99.90;;;;;;5051638;28;20402;-83
2021/12/29 06:22:43;;;;;;;14.30;6.50;;;-10.30;99.90;;;;;;5051678;28;20735;-84
2021/12/29 06:25:13;;;;;;;14.65;7.30;;;-10.50;99.90;;;;;;5053788;28;20730;-83
2021/12/29 06:27:41;;;;;;;14.18;6.40;;;-10.50;99.90;;;;;;5035120;28;20388;-83
2021/12/29 06:30:12;;;;;;;13.82;6.53;;;-10.40;99.90;;;;;;5035193;28;20479;-83
2021/12/29 06:32:41;;;;;;;13.68;6.68;;;-10.50;99.90;;;;;;5051493;28;20407;-84
2021/12/29 06:35:11;;;;;;;13.40;6.68;;;-10.50;99.90;;;;;;5051592;28;20471;-83
2021/12/29 06:37:38;;;;;;;16.48;7.25;;;-10.60;99.90;;;;;;5052549;28;20395;-83
2021/12/29 06:40:07;;;;;;;13.02;6.50;;;-10.50;99.90;;;;;;5034970;28;20388;-84
2021/12/29 06:42:35;;;;;;;13.73;6.68;;;-10.50;99.90;;;;;;5051088;28;20399;-83
2021/12/29 06:45:03;;;;;;;14.40;6.33;;;-10.50;99.90;;;;;;5051189;28;20394;-83
2021/12/29 06:47:31;;;;;;;14.60;6.80;;;-10.70;99.90;;;;;;5052426;28;20395;-83
2021/12/29 06:49:59;;;;;;;14.20;7.25;;;-10.60;99.90;;;;;;5050016;28;20414;-82
2021/12/29 06:52:28;;;;;;;15.07;7.18;;;-10.60;99.90;;;;;;5042333;28;20751;-83
2021/12/29 06:54:56;;;;;;;17.17;7.10;;;-10.60;99.90;;;;;;5047888;28;20396;-83
2021/12/29 06:57:24;;;;;;;14.10;6.70;;;-10.60;99.90;;;;;;5036929;28;20402;-84
2021/12/29 06:59:51;;;;;;;16.02;6.97;;;-10.40;99.90;;;;;;5071170;28;20469;-84
2021/12/29 07:02:19;;;;;;;15.65;7.30;;;-10.50;99.90;;;;;;5054334;28;20398;-83
2021/12/29 07:04:48;;;;;;;18.02;7.32;;;-10.30;99.90;;;;;;5071108;28;20386;-83
2021/12/29 07:07:20;;;;;;;14.77;6.88;;;-10.40;99.90;;;;;;5072126;28;20494;-83
2021/12/29 07:09:48;;;;;;;13.68;6.60;;;-10.50;99.90;;;;;;5071078;28;20390;-82
2021/12/29 07:12:16;;;;;;;16.17;7.28;;;-10.50;99.90;;;;;;5070464;28;20456;-83
2021/12/29 07:14:43;;;;;;;18.58;10.07;;;-10.50;99.90;;;;;;5070852;28;20386;-84
2021/12/29 07:17:11;;;;;;;23.40;10.27;;;-10.40;99.90;;;;;;5066227;28;20486;-83
2021/12/29 07:19:39;;;;;;;15.23;7.75;;;-10.40;99.90;;;;;;5049968;28;20450;-84
2021/12/29 07:22:07;;;;;;;16.88;7.45;;;-10.40;99.90;;;;;;5034366;28;20420;-83
2021/12/29 07:24:35;;;;;;;14.95;6.70;;;-10.40;99.90;;;;;;5034007;28;20893;-83
2021/12/29 07:27:03;;;;;;;14.95;7.03;;;-10.40;99.90;;;;;;5051725;28;20445;-83
2021/12/29 07:29:31;;;;;;;16.20;7.55;;;-10.40;99.90;;;;;;5043420;28;20400;-83
2021/12/29 07:32:02;;;;;;;14.57;6.63;;;-10.30;99.90;;;;;;5051603;28;20403;-84
2021/12/29 07:34:30;;;;;;;107.13;75.35;;;-10.30;99.90;;;;;;5023977;28;20459;-85
2021/12/29 07:36:58;;;;;;;38.35;27.45;;;-10.40;99.90;;;;;;5030547;28;20393;-83
2021/12/29 07:39:25;;;;;;;53.40;43.17;;;-10.40;99.90;;;;;;5031770;28;20392;-84
2021/12/29 07:41:54;;;;;;;22.48;13.20;;;-10.40;99.90;;;;;;5045793;28;20389;-83
2021/12/29 07:44:29;;;;;;;32.90;28.88;;;-10.40;99.90;;;;;;5030095;28;20400;-83
2021/12/29 07:46:58;;;;;;;18.73;12.88;;;-10.40;99.90;;;;;;5031884;28;20401;-84
2021/12/29 07:49:28;;;;;;;17.80;9.83;;;-10.30;99.90;;;;;;5030307;28;20455;-84
2021/12/29 07:51:55;;;;;;;17.55;10.50;;;-10.40;99.90;;;;;;5030704;28;20409;-83
2021/12/29 07:54:23;;;;;;;43.72;38.35;;;-10.40;99.90;;;;;;5030528;28;20405;-84
2021/12/29 07:56:51;;;;;;;25.65;18.08;;;-10.30;99.90;;;;;;5033184;28;20396;-84
2021/12/29 07:59:21;;;;;;;32.97;28.42;;;-10.20;99.90;;;;;;5050204;28;20497;-84
2021/12/29 08:01:50;;;;;;;15.97;10.67;;;-10.20;99.90;;;;;;5050238;28;20392;-84
2021/12/29 08:04:19;;;;;;;13.00;7.45;;;-10.20;99.90;;;;;;5050127;28;20391;-84
2021/12/29 08:06:47;;;;;;;14.85;8.20;;;-10.10;99.90;;;;;;5051690;28;20877;-84
2021/12/29 08:09:15;;;;;;;17.48;9.35;;;-10.20;99.90;;;;;;5037729;28;20563;-83
2021/12/29 08:11:44;;;;;;;16.92;7.68;;;-10.20;99.90;;;;;;5055137;28;20790;-83
2021/12/29 08:14:11;;;;;;;18.98;8.57;;;-10.30;99.90;;;;;;5037522;28;20396;-83
2021/12/29 08:16:39;;;;;;;16.15;7.57;;;-10.20;99.90;;;;;;5054109;28;20392;-85
2021/12/29 08:19:08;;;;;;;14.95;7.63;;;-10.20;99.90;;;;;;5047475;28;20406;-83
2021/12/29 08:21:36;;;;;;;15.13;7.78;;;-10.30;99.90;;;;;;5074110;28;20386;-83
2021/12/29 08:24:04;;;;;;;15.10;6.93;;;-10.10;99.90;;;;;;5073965;28;20413;-84
2021/12/29 08:26:31;;;;;;;18.80;7.90;;;-10.00;99.90;;;;;;5074180;28;20481;-84
2021/12/29 08:29:01;;;;;;;13.70;8.25;;;-9.90;99.90;;;;;;5073747;28;20382;-83
2021/12/29 08:31:29;;;;;;;21.20;14.65;;;-10.00;99.90;;;;;;5074802;28;20406;-84
2021/12/29 08:33:57;;;;;;;18.25;8.32;;;-10.10;99.90;;;;;;5057247;28;20502;-83
2021/12/29 08:36:25;;;;;;;14.02;7.57;;;-10.20;99.90;;;;;;5057222;28;20420;-84
2021/12/29 08:38:55;;;;;;;16.27;8.23;;;-10.20;99.90;;;;;;5073321;28;20395;-83
2021/12/29 08:41:23;;;;;;;21.48;13.73;;;-10.10;99.90;;;;;;5073787;28;20798;-83
2021/12/29 08:43:50;;;;;;;17.80;11.38;;;-10.20;99.90;;;;;;5073712;28;20477;-84
2021/12/29 08:46:19;;;;;;;20.60;10.45;;;-10.20;99.90;;;;;;5073629;28;20923;-83
2021/12/29 08:48:46;;;;;;;18.08;9.63;;;-10.10;99.90;;;;;;5073327;28;20392;-83
2021/12/29 08:51:15;;;;;;;19.20;10.88;;;-10.00;99.90;;;;;;5072916;28;20481;-82
2021/12/29 08:53:45;;;;;;;19.40;11.00;;;-9.90;99.90;;;;;;5057527;28;20394;-84
2021/12/29 08:56:16;;;;;;;16.35;8.63;;;-9.90;99.90;;;;;;5073404;28;20748;-84
2021/12/29 08:58:45;;;;;;;14.32;7.93;;;-10.00;99.90;;;;;;5073575;28;20386;-84
2021/12/29 09:01:13;;;;;;;16.73;7.95;;;-10.00;99.90;;;;;;5056881;28;20382;-84
2021/12/29 09:03:41;;;;;;;16.17;7.90;;;-10.00;99.90;;;;;;5056795;28;20891;-83
2021/12/29 09:06:10;;;;;;;15.32;8.07;;;-10.00;99.90;;;;;;5056797;28;20383;-84
2021/12/29 09:08:38;;;;;;;19.67;9.83;;;-10.00;99.90;;;;;;5063236;28;20396;-83
2021/12/29 09:11:06;;;;;;;21.13;12.93;;;-9.90;99.90;;;;;;5028067;28;20408;-84
2021/12/29 09:13:34;;;;;;;19.30;10.38;;;-9.90;99.90;;;;;;5052922;28;20438;-83
2021/12/29 09:16:03;;;;;;;16.90;9.27;;;-9.80;99.90;;;;;;5052883;28;20414;-83
2021/12/29 09:18:33;;;;;;;14.30;7.97;;;-9.90;99.90;;;;;;5036380;28;20396;-85
2021/12/29 09:21:07;;;;;;;17.48;9.15;;;-9.90;99.90;;;;;;5054152;28;20391;-83
2021/12/29 09:23:35;;;;;;;14.27;7.82;;;-9.80;99.90;;;;;;5036470;28;20435;-84
2021/12/29 09:26:04;;;;;;;13.90;7.32;;;-9.90;99.90;;;;;;5052772;28;20877;-83
2021/12/29 09:28:32;;;;;;;17.17;7.88;;;-9.80;99.90;;;;;;5054284;28;20461;-83
2021/12/29 09:31:00;;;;;;;13.18;6.90;;;-9.80;99.90;;;;;;5044136;28;20400;-82
2021/12/29 09:33:28;;;;;;;14.98;7.57;;;-9.80;99.90;;;;;;5026521;28;20445;-83
2021/12/29 09:36:02;;;;;;;13.40;6.78;;;-9.80;99.90;;;;;;5044681;28;20530;-82
2021/12/29 09:38:34;;;;;;;14.68;7.45;;;-9.80;99.90;;;;;;5031641;28;20381;-83
2021/12/29 09:41:08;;;;;;;15.93;8.88;;;-9.80;99.90;;;;;;5013828;28;20424;-83
2021/12/29 09:43:36;;;;;;;11.75;6.30;;;-9.70;99.90;;;;;;5029936;28;20393;-84
2021/12/29 09:46:05;;;;;;;13.43;6.28;;;-9.70;99.90;;;;;;5029997;28;20926;-83
2021/12/29 09:48:34;;;;;;;13.80;6.55;;;-9.70;99.90;;;;;;5029977;28;20787;-83
2021/12/29 09:51:04;;;;;;;13.63;6.50;;;-9.70;99.90;;;;;;5031111;28;20756;-84
2021/12/29 09:53:32;;;;;;;13.00;5.82;;;-9.70;99.90;;;;;;5031560;28;20470;-83
2021/12/29 09:56:00;;;;;;;11.60;5.97;;;-9.60;99.90;;;;;;5032271;28;20389;-84
2021/12/29 09:58:27;;;;;;;14.50;6.78;;;-9.70;99.90;;;;;;5033658;28;20888;-84
2021/12/29 10:00:59;;;;;;;16.75;7.55;;;-9.70;99.90;;;;;;5032733;28;20476;-83
2021/12/29 10:03:28;;;;;;;16.10;7.28;;;-9.60;99.90;;;;;;5032207;28;20753;-83
2021/12/29 10:05:59;;;;;;;12.82;6.10;;;-9.60;99.90;;;;;;5032288;28;20393;-83
2021/12/29 10:08:32;;;;;;;13.25;6.15;;;-9.60;99.90;;;;;;5032004;28;20393;-85
2021/12/29 10:11:30;;;;;;;13.87;6.53;;;-9.60;99.90;;;;;;5032066;28;20501;-85
2021/12/29 10:13:58;;;;;;;15.45;7.18;;;-9.60;99.90;;;;;;5032172;28;20401;-85
2021/12/29 10:16:29;;;;;;;14.40;7.05;;;-9.50;99.90;;;;;;5015500;28;20401;-85
2021/12/29 10:19:04;;;;;;;15.55;6.55;;;-9.50;99.90;;;;;;5032628;28;20417;-85
2021/12/29 10:21:33;;;;;;;16.20;7.43;;;-9.50;99.90;;;;;;5053013;28;20388;-85
2021/12/29 10:24:01;;;;;;;16.30;6.93;;;-9.50;99.90;;;;;;5035152;28;20424;-84
2021/12/29 10:26:44;;;;;;;14.73;7.32;;;-9.50;99.90;;;;;;5051636;28;20463;-85
2021/12/29 10:29:16;;;;;;;16.65;7.22;;;-9.50;99.90;;;;;;5051584;28;20920;-85
2021/12/29 10:31:47;;;;;;;16.52;7.78;;;-9.50;99.90;;;;;;5051398;28;20439;-85
2021/12/29 10:34:22;;;;;;;14.50;7.10;;;-9.50;99.90;;;;;;5051537;28;20453;-85
2021/12/29 10:36:55;;;;;;;15.65;7.82;;;-9.50;99.90;;;;;;5035630;28;20437;-84
2021/12/29 10:39:36;;;;;;;18.17;6.88;;;-9.40;99.90;;;;;;5051416;28;20392;-85
2021/12/29 10:42:08;;;;;;;14.80;7.22;;;-9.40;99.90;;;;;;5051626;28;21070;-85
2021/12/29 10:44:53;;;;;;;15.25;7.25;;;-9.40;99.90;;;;;;5051337;28;20500;-85
2021/12/29 10:47:26;;;;;;;17.80;7.40;;;-9.30;99.90;;;;;;5052527;28;20397;-85
2021/12/29 10:49:55;;;;;;;13.93;7.35;;;-9.20;99.90;;;;;;5051499;28;20495;-86
2021/12/29 10:52:34;;;;;;;15.45;7.18;;;-9.20;99.90;;;;;;5051532;28;20904;-86
2021/12/29 10:55:07;;;;;;;14.63;7.30;;;-9.10;99.90;;;;;;5051019;28;20479;-85
2021/12/29 10:57:35;;;;;;;13.52;6.68;;;-9.00;99.90;;;;;;5034654;28;20953;-85
2021/12/29 11:00:08;;;;;;;14.30;6.70;;;-8.90;99.90;;;;;;5034676;28;20384;-85
2021/12/29 11:02:36;;;;;;;13.70;6.80;;;-8.80;99.90;;;;;;5052543;28;20419;-84
2021/12/29 11:05:10;;;;;;;15.75;7.05;;;-8.80;99.90;;;;;;5034770;28;20537;-85
2021/12/29 11:07:40;;;;;;;15.43;7.25;;;-8.80;99.90;;;;;;5050962;28;20481;-85
2021/12/29 11:10:18;;;;;;;13.90;6.93;;;-8.70;99.90;;;;;;5050940;28;20437;-85
2021/12/29 11:12:55;;;;;;;14.20;6.80;;;-8.70;99.90;;;;;;5050748;28;20431;-85
2021/12/29 11:15:27;;;;;;;13.63;6.77;;;-8.60;99.90;;;;;;5050707;28;20928;-85
2021/12/29 11:18:00;;;;;;;12.65;6.50;;;-8.60;99.90;;;;;;5034141;28;20403;-85
2021/12/29 11:20:28;;;;;;;13.55;7.05;;;-8.50;99.90;;;;;;5050531;28;20447;-85
2021/12/29 11:23:11;;;;;;;15.60;6.97;;;-8.40;99.90;;;;;;5051815;28;20392;-85
2021/12/29 11:25:41;;;;;;;15.27;7.50;;;-8.40;99.90;;;;;;5050590;28;20425;-86
2021/12/29 11:28:21;;;;;;;14.90;7.00;;;-8.30;99.90;;;;;;5034041;28;20392;-85
2021/12/29 11:30:49;;;;;;;16.85;7.50;;;-8.10;99.90;;;;;;5031232;28;20411;-85
2021/12/29 11:33:19;;;;;;;15.83;7.00;;;-8.10;99.90;;;;;;5030899;28;20405;-85
2021/12/29 11:35:53;;;;;;;15.07;7.20;;;-8.00;99.90;;;;;;5014741;28;20496;-86
2021/12/29 11:38:24;;;;;;;15.00;7.70;;;-8.10;99.90;;;;;;5030940;28;20431;-86
2021/12/29 11:40:59;;;;;;;17.58;7.97;;;-8.10;99.90;;;;;;5029624;28;20730;-87
2021/12/29 11:43:28;;;;;;;14.25;7.07;;;-8.00;99.90;;;;;;5030408;28;20988;-86
2021/12/29 11:45:58;;;;;;;14.00;6.03;;;-7.90;99.90;;;;;;5030468;28;20464;-86
2021/12/29 11:48:27;;;;;;;12.75;5.93;;;-7.90;99.90;;;;;;5030490;28;20385;-86
2021/12/29 11:51:03;;;;;;;11.30;5.43;;;-7.90;99.90;;;;;;5032648;28;20389;-85
2021/12/29 11:53:38;;;;;;;12.15;5.45;;;-7.90;99.90;;;;;;5031066;28;20413;-86
2021/12/29 11:56:08;;;;;;;10.52;5.68;;;-7.80;99.90;;;;;;5039827;28;20392;-86
2021/12/29 11:58:41;;;;;;;13.15;5.63;;;-7.70;99.90;;;;;;5049171;28;20404;-86
2021/12/29 12:01:25;;;;;;;13.02;5.72;;;-7.80;99.90;;;;;;5049794;28;20400;-86
2021/12/29 12:03:57;;;;;;;10.70;5.38;;;-7.90;99.90;;;;;;5054812;28;20406;-86
2021/12/29 12:06:38;;;;;;;10.55;5.32;;;-7.80;99.90;;;;;;5061162;28;20406;-85
2021/12/29 12:09:09;;;;;;;12.15;5.57;;;-7.80;99.90;;;;;;5060833;28;20413;-85
2021/12/29 12:11:42;;;;;;;12.55;5.80;;;-7.70;99.90;;;;;;5038276;28;20481;-85
2021/12/29 12:14:26;;;;;;;12.15;5.70;;;-7.70;99.90;;;;;;5045547;28;20855;-84
2021/12/29 12:17:04;;;;;;;11.65;5.88;;;-7.60;99.90;;;;;;5023645;28;20407;-86
2021/12/29 12:19:33;;;;;;;11.88;5.55;;;-7.70;99.90;;;;;;5048907;28;20489;-85
2021/12/29 12:22:05;;;;;;;11.02;5.47;;;-7.70;99.90;;;;;;5034283;28;20947;-86
2021/12/29 12:24:34;;;;;;;10.70;5.50;;;-7.70;99.90;;;;;;5042592;28;20405;-87
2021/12/29 12:27:10;;;;;;;15.57;6.30;;;-7.80;99.90;;;;;;5050064;28;20379;-86
2021/12/29 12:29:42;;;;;;;14.18;5.97;;;-7.80;99.90;;;;;;5043448;28;20441;-86
2021/12/29 12:32:19;;;;;;;13.75;6.70;;;-7.90;99.90;;;;;;5045146;28;20395;-86
2021/12/29 12:34:55;;;;;;;13.68;6.50;;;-7.90;99.90;;;;;;5057802;28;20435;-87
2021/12/29 12:37:35;;;;;;;15.60;7.20;;;-7.90;99.90;;;;;;5048335;28;20383;-86
2021/12/29 12:40:13;;;;;;;20.48;8.65;;;-7.90;99.90;;;;;;5047430;28;20486;-86
2021/12/29 12:42:41;;;;;;;18.02;7.95;;;-8.00;99.90;;;;;;5031975;28;20507;-86
2021/12/29 12:45:19;;;;;;;16.08;7.22;;;-8.00;99.90;;;;;;5033719;28;20399;-85
2021/12/29 12:47:47;;;;;;;14.13;7.50;;;-8.00;99.90;;;;;;5033354;28;20482;-85